^^
Station Historical Data
Daily Summary for January 17, 2018 Units:  Both    English   Metric
« Previous Day
Next Day »
Daily Weekly Monthly Yearly Custom
  High: Low: Average:
Temperature: TemperatureF °F /  -17.8 °C 67.5 °F /  19.7 °C 79.4 °F /  26.3 °C
Dew Point: DewpointF °F /  -17.8 °C 41.5 °F /  5.3 °C 49 °F /  9.4 °C
Humidity: Humidity% 17% 37%
Wind Speed: WindSpeedMPHmph /  0km/h - 1.8mph /  2.9km/h
Wind Gust: WindSpeedGustMPHmph /  0km/h - -
Wind- - SSE
Pressure: PressureIn in /  0 hPa 29.60 in /  1002.3 hPa -
Precipitation: 0.00 in /  0 mm    
Historical Graphs
 
 
Tabular Data for January 17, 2018
Time Temperature Dew Point Pressure Wind Wind Speed Wind Gust Humidity Rainfall Rate (Hourly) solar Conditions
TemperatureF °F /  -17.8 °C DewpointF °F /  -17.8 °C PressureInin /  0hPa Calm     Humidity% HourlyPrecipInin /  0mm SolarRadiationWatts/m^2 W/m2 Conditions
00:03 75.6 °F /  24.2 °C 50.2 °F /  10.1 °C 29.75in /  1007.3hPa East 0.9mph /  1.4km/h 4.0mph /  6.4km/h 41% 0.00in /  0mm 0.0 W/m2
00:08 75.6 °F /  24.2 °C 50.9 °F /  10.5 °C 29.75in /  1007.3hPa Calm   4.0mph /  6.4km/h 42% 0.00in /  0mm 0.0 W/m2
00:13 75.6 °F /  24.2 °C 50.9 °F /  10.5 °C 29.75in /  1007.3hPa Calm   2.0mph /  3.2km/h 42% 0.00in /  0mm 0.0 W/m2
00:18 75.4 °F /  24.1 °C 52.0 °F /  11.1 °C 29.75in /  1007.3hPa Calm   2.0mph /  3.2km/h 44% 0.00in /  0mm 0.0 W/m2
00:24 75.0 °F /  23.9 °C 52.2 °F /  11.2 °C 29.74in /  1007hPa Calm   1.0mph /  1.6km/h 45% 0.00in /  0mm 0.0 W/m2
00:30 74.8 °F /  23.8 °C 51.4 °F /  10.8 °C 29.74in /  1007hPa Calm     44% 0.00in /  0mm 0.0 W/m2
00:35 74.7 °F /  23.7 °C 52.0 °F /  11.1 °C 29.74in /  1007hPa Calm   4.0mph /  6.4km/h 45% 0.00in /  0mm 0.0 W/m2
00:40 74.7 °F /  23.7 °C 51.3 °F /  10.7 °C 29.74in /  1007hPa Calm   1.0mph /  1.6km/h 44% 0.00in /  0mm 0.0 W/m2
00:46 74.7 °F /  23.7 °C 49.5 °F /  9.7 °C 29.73in /  1006.7hPa SSW 0.9mph /  1.4km/h 3.0mph /  4.8km/h 41% 0.00in /  0mm 0.0 W/m2
00:55 75.0 °F /  23.9 °C 50.4 °F /  10.2 °C 29.73in /  1006.7hPa Calm   3.0mph /  4.8km/h 42% 0.00in /  0mm 0.0 W/m2
01:00 75.0 °F /  23.9 °C 49.6 °F /  9.8 °C 29.73in /  1006.7hPa Calm   4.0mph /  6.4km/h 41% 0.00in /  0mm 0.0 W/m2
01:04 75.2 °F /  24 °C 49.8 °F /  9.9 °C 29.72in /  1006.3hPa Calm   3.0mph /  4.8km/h 41% 0.00in /  0mm 0.0 W/m2
01:05 75.4 °F /  24.1 °C 50.0 °F /  10 °C 29.73in /  1006.7hPa SW 2.9mph /  4.7km/h 4.0mph /  6.4km/h 41% 0.00in /  0mm 0.0 W/m2
01:10 75.4 °F /  24.1 °C 50.0 °F /  10 °C 29.73in /  1006.7hPa South 0.9mph /  1.4km/h 2.0mph /  3.2km/h 41% 0.00in /  0mm 0.0 W/m2
01:16 75.4 °F /  24.1 °C 50.0 °F /  10 °C 29.72in /  1006.3hPa Calm   1.0mph /  1.6km/h 41% 0.00in /  0mm 0.0 W/m2
01:22 75.4 °F /  24.1 °C 50.0 °F /  10 °C 29.72in /  1006.3hPa Calm   1.0mph /  1.6km/h 41% 0.00in /  0mm 0.0 W/m2
01:33 75.0 °F /  23.9 °C 50.4 °F /  10.2 °C 29.72in /  1006.3hPa Calm   3.0mph /  4.8km/h 42% 0.00in /  0mm 0.0 W/m2
01:39 75.0 °F /  23.9 °C 50.4 °F /  10.2 °C 29.71in /  1006hPa Calm   1.0mph /  1.6km/h 42% 0.00in /  0mm 0.0 W/m2
01:45 74.8 °F /  23.8 °C 50.2 °F /  10.1 °C 29.71in /  1006hPa Calm   2.0mph /  3.2km/h 42% 0.00in /  0mm 0.0 W/m2
01:56 74.5 °F /  23.6 °C 51.1 °F /  10.6 °C 29.70in /  1005.6hPa Calm   5.0mph /  8km/h 44% 0.00in /  0mm 0.0 W/m2
02:01 74.1 °F /  23.4 °C 51.4 °F /  10.8 °C 29.70in /  1005.6hPa SW 4.0mph /  6.4km/h 6.0mph /  9.7km/h 45% 0.00in /  0mm 0.0 W/m2
02:17 73.2 °F /  22.9 °C 51.8 °F /  11 °C 29.69in /  1005.3hPa SSW 4.9mph /  7.9km/h 5.0mph /  8km/h 47% 0.00in /  0mm 0.0 W/m2
02:22 73.0 °F /  22.8 °C 52.2 °F /  11.2 °C 29.69in /  1005.3hPa Calm   6.0mph /  9.7km/h 48% 0.00in /  0mm 0.0 W/m2
02:31 72.9 °F /  22.7 °C 52.0 °F /  11.1 °C 29.68in /  1005hPa Calm   1.0mph /  1.6km/h 48% 0.00in /  0mm 0.0 W/m2
02:36 72.7 °F /  22.6 °C 52.3 °F /  11.3 °C 29.68in /  1005hPa SSW 0.9mph /  1.4km/h 1.0mph /  1.6km/h 49% 0.00in /  0mm 0.0 W/m2
02:47 72.3 °F /  22.4 °C 51.4 °F /  10.8 °C 29.68in /  1005hPa Calm   3.0mph /  4.8km/h 48% 0.00in /  0mm 0.0 W/m2
02:52 72.1 °F /  22.3 °C 51.4 °F /  10.8 °C 29.68in /  1005hPa Calm   2.0mph /  3.2km/h 48% 0.00in /  0mm 0.0 W/m2
02:58 72.1 °F /  22.3 °C 51.4 °F /  10.8 °C 29.69in /  1005.3hPa Calm   1.0mph /  1.6km/h 48% 0.00in /  0mm 0.0 W/m2
03:03 72.1 °F /  22.3 °C 51.4 °F /  10.8 °C 29.68in /  1005hPa Calm   1.0mph /  1.6km/h 48% 0.00in /  0mm 0.0 W/m2
03:08 72.1 °F /  22.3 °C 51.4 °F /  10.8 °C 29.68in /  1005hPa Calm   2.0mph /  3.2km/h 48% 0.00in /  0mm 0.0 W/m2
03:13 72.1 °F /  22.3 °C 51.4 °F /  10.8 °C 29.68in /  1005hPa Calm   3.0mph /  4.8km/h 48% 0.00in /  0mm 0.0 W/m2
03:18 72.1 °F /  22.3 °C 50.7 °F /  10.4 °C 29.68in /  1005hPa Calm   3.0mph /  4.8km/h 47% 0.00in /  0mm 0.0 W/m2
03:25 72.1 °F /  22.3 °C 50.7 °F /  10.4 °C 29.68in /  1005hPa Calm   1.0mph /  1.6km/h 47% 0.00in /  0mm 0.0 W/m2
03:34 72.1 °F /  22.3 °C 50.7 °F /  10.4 °C 29.68in /  1005hPa Calm     47% 0.00in /  0mm 0.0 W/m2
03:39 72.1 °F /  22.3 °C 51.4 °F /  10.8 °C 29.68in /  1005hPa Calm     48% 0.00in /  0mm 0.0 W/m2
03:44 72.1 °F /  22.3 °C 51.4 °F /  10.8 °C 29.68in /  1005hPa Calm   1.0mph /  1.6km/h 48% 0.00in /  0mm 0.0 W/m2
03:49 72.0 °F /  22.2 °C 52.3 °F /  11.3 °C 29.68in /  1005hPa Calm   2.0mph /  3.2km/h 50% 0.00in /  0mm 0.0 W/m2
03:58 71.6 °F /  22 °C 52.5 °F /  11.4 °C 29.68in /  1005hPa Calm   2.0mph /  3.2km/h 51% 0.00in /  0mm 0.0 W/m2
04:04 71.4 °F /  21.9 °C 52.9 °F /  11.6 °C 29.67in /  1004.6hPa Calm   1.0mph /  1.6km/h 52% 0.00in /  0mm 0.0 W/m2
04:09 71.2 °F /  21.8 °C 52.7 °F /  11.5 °C 29.67in /  1004.6hPa Calm   1.0mph /  1.6km/h 52% 0.00in /  0mm 0.0 W/m2
04:14 71.1 °F /  21.7 °C 52.5 °F /  11.4 °C 29.67in /  1004.6hPa Calm   2.0mph /  3.2km/h 52% 0.00in /  0mm 0.0 W/m2
04:20 70.9 °F /  21.6 °C 52.3 °F /  11.3 °C 29.67in /  1004.6hPa Calm     52% 0.00in /  0mm 0.0 W/m2
04:26 70.9 °F /  21.6 °C 52.3 °F /  11.3 °C 29.67in /  1004.6hPa Calm     52% 0.00in /  0mm 0.0 W/m2
04:31 70.7 °F /  21.5 °C 52.7 °F /  11.5 °C 29.67in /  1004.6hPa Calm   1.0mph /  1.6km/h 53% 0.00in /  0mm 0.0 W/m2
04:37 70.5 °F /  21.4 °C 52.5 °F /  11.4 °C 29.67in /  1004.6hPa Calm   1.0mph /  1.6km/h 53% 0.00in /  0mm 0.0 W/m2
04:42 70.5 °F /  21.4 °C 52.5 °F /  11.4 °C 29.67in /  1004.6hPa Calm     53% 0.00in /  0mm 0.0 W/m2
04:47 70.5 °F /  21.4 °C 53.1 °F /  11.7 °C 29.67in /  1004.6hPa Calm     54% 0.00in /  0mm 0.0 W/m2
04:53 70.3 °F /  21.3 °C 52.9 °F /  11.6 °C 29.67in /  1004.6hPa Calm     54% 0.00in /  0mm 0.0 W/m2
05:02 70.3 °F /  21.3 °C 53.4 °F /  11.9 °C 29.67in /  1004.6hPa Calm     55% 0.00in /  0mm 0.0 W/m2
05:11 70.0 °F /  21.1 °C 53.6 °F /  12 °C 29.67in /  1004.6hPa Calm   1.0mph /  1.6km/h 56% 0.00in /  0mm 0.0 W/m2
05:16 70.0 °F /  21.1 °C 53.6 °F /  12 °C 29.67in /  1004.6hPa Calm   2.0mph /  3.2km/h 56% 0.00in /  0mm 0.0 W/m2
05:21 69.6 °F /  20.9 °C 53.8 °F /  12.1 °C 29.67in /  1004.6hPa Calm   1.0mph /  1.6km/h 57% 0.00in /  0mm 0.0 W/m2
05:32 69.3 °F /  20.7 °C 53.8 °F /  12.1 °C 29.67in /  1004.6hPa ENE 0.9mph /  1.4km/h 1.0mph /  1.6km/h 58% 0.00in /  0mm 0.0 W/m2
05:37 69.1 °F /  20.6 °C 53.2 °F /  11.8 °C 29.67in /  1004.6hPa Calm   1.0mph /  1.6km/h 57% 0.00in /  0mm 0.0 W/m2
05:42 68.9 °F /  20.5 °C 53.6 °F /  12 °C 29.67in /  1004.6hPa Calm     58% 0.00in /  0mm 0.0 W/m2
05:49 68.7 °F /  20.4 °C 52.9 °F /  11.6 °C 29.67in /  1004.6hPa Calm     57% 0.00in /  0mm 0.0 W/m2
05:54 68.5 °F /  20.3 °C 53.2 °F /  11.8 °C 29.67in /  1004.6hPa Calm   1.0mph /  1.6km/h 58% 0.00in /  0mm 0.0 W/m2
05:59 68.4 °F /  20.2 °C 53.1 °F /  11.7 °C 29.67in /  1004.6hPa ENE 0.9mph /  1.4km/h 2.0mph /  3.2km/h 58% 0.00in /  0mm 0.0 W/m2
06:09 68.2 °F /  20.1 °C 52.9 °F /  11.6 °C 29.67in /  1004.6hPa Calm     58% 0.00in /  0mm 0.0 W/m2
06:15 68.0 °F /  20 °C 52.7 °F /  11.5 °C 29.67in /  1004.6hPa Calm     58% 0.00in /  0mm 0.0 W/m2
06:20 67.8 °F /  19.9 °C 52.9 °F /  11.6 °C 29.68in /  1005hPa Calm   1.0mph /  1.6km/h 59% 0.00in /  0mm 0.0 W/m2
06:25 67.8 °F /  19.9 °C 52.9 °F /  11.6 °C 29.67in /  1004.6hPa Calm     59% 0.00in /  0mm 7.0 W/m2
06:30 67.8 °F /  19.9 °C 52.9 °F /  11.6 °C 29.67in /  1004.6hPa ENE 0.9mph /  1.4km/h 1.0mph /  1.6km/h 59% 0.00in /  0mm 7.0 W/m2
06:42 67.5 °F /  19.7 °C 53.1 °F /  11.7 °C 29.68in /  1005hPa Calm   1.0mph /  1.6km/h 60% 0.00in /  0mm 19.0 W/m2
06:48 67.5 °F /  19.7 °C 52.7 °F /  11.5 °C 29.68in /  1005hPa Calm   4.0mph /  6.4km/h 59% 0.00in /  0mm 32.0 W/m2
06:53 67.6 °F /  19.8 °C 52.9 °F /  11.6 °C 29.68in /  1005hPa Calm   2.0mph /  3.2km/h 59% 0.00in /  0mm 39.0 W/m2
06:58 67.8 °F /  19.9 °C 52.9 °F /  11.6 °C 29.69in /  1005.3hPa ENE 0.9mph /  1.4km/h 3.0mph /  4.8km/h 59% 0.00in /  0mm 47.0 W/m2
07:04 67.8 °F /  19.9 °C 52.9 °F /  11.6 °C 29.69in /  1005.3hPa East 2.9mph /  4.7km/h 3.0mph /  4.8km/h 59% 0.00in /  0mm 60.0 W/m2
07:09 68.2 °F /  20.1 °C 53.2 °F /  11.8 °C 29.69in /  1005.3hPa Calm   2.0mph /  3.2km/h 59% 0.00in /  0mm 65.0 W/m2
07:14 68.4 °F /  20.2 °C 53.4 °F /  11.9 °C 29.69in /  1005.3hPa East 0.9mph /  1.4km/h 3.0mph /  4.8km/h 59% 0.00in /  0mm 63.0 W/m2
07:19 68.5 °F /  20.3 °C 53.6 °F /  12 °C 29.69in /  1005.3hPa Calm   2.0mph /  3.2km/h 59% 0.00in /  0mm 63.0 W/m2
07:26 68.9 °F /  20.5 °C 54.0 °F /  12.2 °C 29.70in /  1005.6hPa Calm     59% 0.00in /  0mm 72.0 W/m2
07:31 69.1 °F /  20.6 °C 54.1 °F /  12.3 °C 29.70in /  1005.6hPa Calm   3.0mph /  4.8km/h 59% 0.00in /  0mm 86.0 W/m2
07:36 69.3 °F /  20.7 °C 53.8 °F /  12.1 °C 29.70in /  1005.6hPa Calm   3.0mph /  4.8km/h 58% 0.00in /  0mm 104.0 W/m2
07:41 69.4 °F /  20.8 °C 53.6 °F /  12 °C 29.70in /  1005.6hPa Calm   2.0mph /  3.2km/h 57% 0.00in /  0mm 98.0 W/m2
07:46 69.6 °F /  20.9 °C 54.1 °F /  12.3 °C 29.70in /  1005.6hPa Calm   3.0mph /  4.8km/h 58% 0.00in /  0mm 90.0 W/m2
07:51 70.0 °F /  21.1 °C 54.0 °F /  12.2 °C 29.70in /  1005.6hPa Calm   2.0mph /  3.2km/h 57% 0.00in /  0mm 199.0 W/m2
07:57 70.5 °F /  21.4 °C 53.1 °F /  11.7 °C 29.70in /  1005.6hPa Calm   1.0mph /  1.6km/h 54% 0.00in /  0mm 281.0 W/m2
08:03 71.1 °F /  21.7 °C 54.1 °F /  12.3 °C 29.70in /  1005.6hPa Calm     55% 0.00in /  0mm 107.0 W/m2
08:08 71.6 °F /  22 °C 55.0 °F /  12.8 °C 29.70in /  1005.6hPa Calm     56% 0.00in /  0mm 139.0 W/m2
08:17 72.3 °F /  22.4 °C 54.1 °F /  12.3 °C 29.69in /  1005.3hPa Calm     53% 0.00in /  0mm 429.0 W/m2
08:22 73.2 °F /  22.9 °C 51.8 °F /  11 °C 29.70in /  1005.6hPa Calm     47% 0.00in /  0mm 239.0 W/m2
08:27 73.9 °F /  23.3 °C 52.5 °F /  11.4 °C 29.69in /  1005.3hPa Calm   1.0mph /  1.6km/h 47% 0.00in /  0mm 149.0 W/m2
08:32 74.7 °F /  23.7 °C 53.1 °F /  11.7 °C 29.70in /  1005.6hPa Calm     47% 0.00in /  0mm 167.0 W/m2
08:37 74.8 °F /  23.8 °C 53.2 °F /  11.8 °C 29.70in /  1005.6hPa Calm   1.0mph /  1.6km/h 47% 0.00in /  0mm 213.0 W/m2
08:49 75.9 °F /  24.4 °C 54.3 °F /  12.4 °C 29.70in /  1005.6hPa Calm     47% 0.00in /  0mm 299.0 W/m2
08:54 76.6 °F /  24.8 °C 53.1 °F /  11.7 °C 29.70in /  1005.6hPa Calm   1.0mph /  1.6km/h 44% 0.00in /  0mm 283.0 W/m2
08:59 77.2 °F /  25.1 °C 52.3 °F /  11.3 °C 29.70in /  1005.6hPa SW 0.9mph /  1.4km/h 2.0mph /  3.2km/h 42% 0.00in /  0mm 417.0 W/m2
09:04 78.1 °F /  25.6 °C 51.8 °F /  11 °C 29.70in /  1005.6hPa Calm   2.0mph /  3.2km/h 40% 0.00in /  0mm 673.0 W/m2
09:09 79.2 °F /  26.2 °C 49.1 °F /  9.5 °C 29.70in /  1005.6hPa Calm   1.0mph /  1.6km/h 35% 0.00in /  0mm 744.0 W/m2
09:18 81.7 °F /  27.6 °C 48.0 °F /  8.9 °C 29.70in /  1005.6hPa SE 2.9mph /  4.7km/h 8.0mph /  12.9km/h 31% 0.00in /  0mm 807.0 W/m2
09:23 83.3 °F /  28.5 °C 48.6 °F /  9.2 °C 29.70in /  1005.6hPa ESE 6.0mph /  9.7km/h 7.0mph /  11.3km/h 30% 0.00in /  0mm 849.0 W/m2
09:28 84.0 °F /  28.9 °C 47.5 °F /  8.6 °C 29.70in /  1005.6hPa SSE 8.9mph /  14.3km/h 10.0mph /  16.1km/h 28% 0.00in /  0mm 684.0 W/m2
09:33 84.6 °F /  29.2 °C 47.8 °F /  8.8 °C 29.70in /  1005.6hPa East 4.0mph /  6.4km/h 11.0mph /  17.7km/h 28% 0.00in /  0mm 721.0 W/m2
09:45 85.3 °F /  29.6 °C 48.6 °F /  9.2 °C 29.70in /  1005.6hPa SE 4.9mph /  7.9km/h 7.0mph /  11.3km/h 28% 0.00in /  0mm 729.0 W/m2
09:50 85.5 °F /  29.7 °C 46.6 °F /  8.1 °C 29.70in /  1005.6hPa SE 2.0mph /  3.2km/h 8.0mph /  12.9km/h 26% 0.00in /  0mm 406.0 W/m2
09:56 85.8 °F /  29.9 °C 48.0 °F /  8.9 °C 29.70in /  1005.6hPa SSE 4.9mph /  7.9km/h 9.0mph /  14.5km/h 27% 0.00in /  0mm 907.0 W/m2
10:01 86.5 °F /  30.3 °C 48.6 °F /  9.2 °C 29.70in /  1005.6hPa SSW 4.0mph /  6.4km/h 7.0mph /  11.3km/h 27% 0.00in /  0mm 912.0 W/m2
10:06 87.1 °F /  30.6 °C 46.9 °F /  8.3 °C 29.70in /  1005.6hPa SSW 4.9mph /  7.9km/h 11.0mph /  17.7km/h 25% 0.00in /  0mm 951.0 W/m2
10:11 87.4 °F /  30.8 °C 47.3 °F /  8.5 °C 29.70in /  1005.6hPa SSE 10.1mph /  16.3km/h 10.1mph /  16.3km/h 25% 0.00in /  0mm 1009.0 W/m2
10:16 87.4 °F /  30.8 °C 46.2 °F /  7.9 °C 29.70in /  1005.6hPa NE 4.9mph /  7.9km/h 6.0mph /  9.7km/h 24% 0.00in /  0mm 705.0 W/m2
10:21 87.3 °F /  30.7 °C 47.1 °F /  8.4 °C 29.70in /  1005.6hPa East 0.9mph /  1.4km/h 10.0mph /  16.1km/h 25% 0.00in /  0mm 288.0 W/m2
10:27 86.7 °F /  30.4 °C 47.7 °F /  8.7 °C 29.70in /  1005.6hPa ESE 4.0mph /  6.4km/h 8.0mph /  12.9km/h 26% 0.00in /  0mm 308.0 W/m2
10:32 86.4 °F /  30.2 °C 46.4 °F /  8 °C 29.70in /  1005.6hPa ESE 10.1mph /  16.3km/h 10.1mph /  16.3km/h 25% 0.00in /  0mm 357.0 W/m2
10:40 86.9 °F /  30.5 °C 46.8 °F /  8.2 °C 29.70in /  1005.6hPa ENE 2.0mph /  3.2km/h 4.0mph /  6.4km/h 25% 0.00in /  0mm 993.0 W/m2
10:46 88.0 °F /  31.1 °C 46.6 °F /  8.1 °C 29.70in /  1005.6hPa ESE 4.9mph /  7.9km/h 7.0mph /  11.3km/h 24% 0.00in /  0mm 946.0 W/m2
10:51 88.3 °F /  31.3 °C 46.9 °F /  8.3 °C 29.70in /  1005.6hPa Calm   1.0mph /  1.6km/h 24% 0.00in /  0mm 979.0 W/m2
11:00 88.5 °F /  31.4 °C 47.1 °F /  8.4 °C 29.70in /  1005.6hPa SSE 6.0mph /  9.7km/h 9.0mph /  14.5km/h 24% 0.00in /  0mm 986.0 W/m2
11:05 88.5 °F /  31.4 °C 47.1 °F /  8.4 °C 29.70in /  1005.6hPa NE 2.0mph /  3.2km/h 5.0mph /  8km/h 24% 0.00in /  0mm 998.0 W/m2
11:13 89.6 °F /  32 °C 48.0 °F /  8.9 °C 29.70in /  1005.6hPa North 4.9mph /  7.9km/h 6.0mph /  9.7km/h 24% 0.00in /  0mm 1014.0 W/m2
11:18 90.3 °F /  32.4 °C 47.5 °F /  8.6 °C 29.70in /  1005.6hPa ESE 0.9mph /  1.4km/h 9.0mph /  14.5km/h 23% 0.00in /  0mm 1028.0 W/m2
11:23 90.7 °F /  32.6 °C 48.9 °F /  9.4 °C 29.70in /  1005.6hPa SE 0.9mph /  1.4km/h 8.0mph /  12.9km/h 24% 0.00in /  0mm 1035.0 W/m2
11:28 90.7 °F /  32.6 °C 46.6 °F /  8.1 °C 29.70in /  1005.6hPa West 0.9mph /  1.4km/h 2.0mph /  3.2km/h 22% 0.00in /  0mm 1065.0 W/m2
11:33 90.1 °F /  32.3 °C 47.3 °F /  8.5 °C 29.70in /  1005.6hPa NE 4.0mph /  6.4km/h 7.0mph /  11.3km/h 23% 0.00in /  0mm 1093.0 W/m2
11:38 90.3 °F /  32.4 °C 47.5 °F /  8.6 °C 29.70in /  1005.6hPa North 2.0mph /  3.2km/h 6.0mph /  9.7km/h 23% 0.00in /  0mm 1132.0 W/m2
11:43 90.5 °F /  32.5 °C 46.4 °F /  8 °C 29.70in /  1005.6hPa NE 4.0mph /  6.4km/h 5.0mph /  8km/h 22% 0.00in /  0mm 1188.0 W/m2
11:48 90.3 °F /  32.4 °C 47.5 °F /  8.6 °C 29.70in /  1005.6hPa NNE 4.0mph /  6.4km/h 6.0mph /  9.7km/h 23% 0.00in /  0mm 279.0 W/m2
11:53 90.0 °F /  32.2 °C 47.1 °F /  8.4 °C 29.70in /  1005.6hPa NNE 4.0mph /  6.4km/h 4.0mph /  6.4km/h 23% 0.00in /  0mm 1134.0 W/m2
11:59 90.0 °F /  32.2 °C 47.1 °F /  8.4 °C 29.70in /  1005.6hPa Calm   2.0mph /  3.2km/h 23% 0.00in /  0mm 1151.0 W/m2
12:04 90.1 °F /  32.3 °C 48.6 °F /  9.2 °C 29.70in /  1005.6hPa ENE 4.0mph /  6.4km/h 8.0mph /  12.9km/h 24% 0.00in /  0mm 1179.0 W/m2
12:15 91.9 °F /  33.3 °C 46.4 °F /  8 °C 29.69in /  1005.3hPa NNW 6.9mph /  11.1km/h 10.0mph /  16.1km/h 21% 0.00in /  0mm 1157.0 W/m2
12:25 91.8 °F /  33.2 °C 47.5 °F /  8.6 °C 29.69in /  1005.3hPa NNW 4.0mph /  6.4km/h 8.0mph /  12.9km/h 22% 0.00in /  0mm 1125.0 W/m2
12:30 91.8 °F /  33.2 °C 46.2 °F /  7.9 °C 29.69in /  1005.3hPa NW 4.9mph /  7.9km/h 15.0mph /  24.1km/h 21% 0.00in /  0mm 1146.0 W/m2
12:36 92.5 °F /  33.6 °C 45.5 °F /  7.5 °C 29.69in /  1005.3hPa Calm   5.0mph /  8km/h 20% 0.00in /  0mm 1176.0 W/m2
12:45 92.7 °F /  33.7 °C 45.7 °F /  7.6 °C 29.68in /  1005hPa North 4.9mph /  7.9km/h 9.0mph /  14.5km/h 20% 0.00in /  0mm 810.0 W/m2
12:50 92.7 °F /  33.7 °C 45.7 °F /  7.6 °C 29.68in /  1005hPa NE 2.0mph /  3.2km/h 6.0mph /  9.7km/h 20% 0.00in /  0mm 1208.0 W/m2
12:55 92.8 °F /  33.8 °C 47.1 °F /  8.4 °C 29.68in /  1005hPa Calm   1.0mph /  1.6km/h 21% 0.00in /  0mm 292.0 W/m2
13:00 92.7 °F /  33.7 °C 46.9 °F /  8.3 °C 29.67in /  1004.6hPa NNE 2.0mph /  3.2km/h 6.0mph /  9.7km/h 21% 0.00in /  0mm 357.0 W/m2
13:05 92.5 °F /  33.6 °C 46.9 °F /  8.3 °C 29.67in /  1004.6hPa East 2.9mph /  4.7km/h 6.0mph /  9.7km/h 21% 0.00in /  0mm 909.0 W/m2
13:10 92.5 °F /  33.6 °C 45.5 °F /  7.5 °C 29.67in /  1004.6hPa SSE 2.9mph /  4.7km/h 6.0mph /  9.7km/h 20% 0.00in /  0mm 810.0 W/m2
13:15 92.1 °F /  33.4 °C 45.3 °F /  7.4 °C 29.67in /  1004.6hPa North 10.1mph /  16.3km/h 14.0mph /  22.5km/h 20% 0.00in /  0mm 645.0 W/m2
13:20 91.9 °F /  33.3 °C 45.1 °F /  7.3 °C 29.67in /  1004.6hPa NNE 2.0mph /  3.2km/h 8.0mph /  12.9km/h 20% 0.00in /  0mm 1245.0 W/m2
13:29 93.2 °F /  34 °C 46.2 °F /  7.9 °C 29.67in /  1004.6hPa ESE 2.0mph /  3.2km/h 8.0mph /  12.9km/h 20% 0.00in /  0mm 937.0 W/m2
13:34 93.2 °F /  34 °C 44.8 °F /  7.1 °C 29.67in /  1004.6hPa SSW 4.0mph /  6.4km/h 4.0mph /  6.4km/h 19% 0.00in /  0mm 974.0 W/m2
13:40 92.7 °F /  33.7 °C 44.4 °F /  6.9 °C 29.67in /  1004.6hPa Calm   7.0mph /  11.3km/h 19% 0.00in /  0mm 1429.0 W/m2
13:45 92.1 °F /  33.4 °C 43.9 °F /  6.6 °C 29.66in /  1004.3hPa Calm   3.0mph /  4.8km/h 19% 0.00in /  0mm 515.0 W/m2
13:50 92.5 °F /  33.6 °C 44.2 °F /  6.8 °C 29.66in /  1004.3hPa ESE 6.0mph /  9.7km/h 7.0mph /  11.3km/h 19% 0.00in /  0mm 513.0 W/m2
13:55 92.5 °F /  33.6 °C 45.5 °F /  7.5 °C 29.66in /  1004.3hPa SE 0.9mph /  1.4km/h 10.0mph /  16.1km/h 20% 0.00in /  0mm 457.0 W/m2
14:00 92.5 °F /  33.6 °C 44.2 °F /  6.8 °C 29.66in /  1004.3hPa ENE 0.9mph /  1.4km/h 3.0mph /  4.8km/h 19% 0.00in /  0mm 557.0 W/m2
14:08 92.5 °F /  33.6 °C 44.2 °F /  6.8 °C 29.65in /  1003.9hPa WNW 0.9mph /  1.4km/h 3.0mph /  4.8km/h 19% 0.00in /  0mm 547.0 W/m2
14:13 92.7 °F /  33.7 °C 45.7 °F /  7.6 °C 29.65in /  1003.9hPa Calm   7.0mph /  11.3km/h 20% 0.00in /  0mm 598.0 W/m2
14:18 92.5 °F /  33.6 °C 45.5 °F /  7.5 °C 29.65in /  1003.9hPa West 2.0mph /  3.2km/h 3.0mph /  4.8km/h 20% 0.00in /  0mm 1341.0 W/m2
14:27 93.0 °F /  33.9 °C 46.0 °F /  7.8 °C 29.64in /  1003.6hPa NNE 2.0mph /  3.2km/h 9.0mph /  14.5km/h 20% 0.00in /  0mm 1308.0 W/m2
14:33 93.9 °F /  34.4 °C 44.1 °F /  6.7 °C 29.64in /  1003.6hPa SW 0.9mph /  1.4km/h 2.0mph /  3.2km/h 18% 0.00in /  0mm 403.0 W/m2
14:38 93.9 °F /  34.4 °C 45.3 °F /  7.4 °C 29.64in /  1003.6hPa South 0.9mph /  1.4km/h 2.0mph /  3.2km/h 19% 0.00in /  0mm 348.0 W/m2
14:43 93.4 °F /  34.1 °C 43.5 °F /  6.4 °C 29.64in /  1003.6hPa WNW 0.9mph /  1.4km/h 3.0mph /  4.8km/h 18% 0.00in /  0mm 329.0 W/m2
14:48 92.7 °F /  33.7 °C 43.0 °F /  6.1 °C 29.64in /  1003.6hPa ENE 4.0mph /  6.4km/h 4.0mph /  6.4km/h 18% 0.00in /  0mm 369.0 W/m2
14:53 92.5 °F /  33.6 °C 42.8 °F /  6 °C 29.63in /  1003.3hPa Calm   3.0mph /  4.8km/h 18% 0.00in /  0mm 420.0 W/m2
15:02 92.7 °F /  33.7 °C 41.5 °F /  5.3 °C 29.63in /  1003.3hPa NNW 2.9mph /  4.7km/h 6.0mph /  9.7km/h 17% 0.00in /  0mm 417.0 W/m2
15:13 92.7 °F /  33.7 °C 41.5 °F /  5.3 °C 29.63in /  1003.3hPa Calm   2.0mph /  3.2km/h 17% 0.00in /  0mm 366.0 W/m2
15:18 92.5 °F /  33.6 °C 42.8 °F /  6 °C 29.62in /  1002.9hPa South 2.0mph /  3.2km/h 6.0mph /  9.7km/h 18% 0.00in /  0mm 329.0 W/m2
15:23 92.1 °F /  33.4 °C 42.4 °F /  5.8 °C 29.62in /  1002.9hPa ESE 0.9mph /  1.4km/h 8.0mph /  12.9km/h 18% 0.00in /  0mm 299.0 W/m2
15:28 91.9 °F /  33.3 °C 42.4 °F /  5.8 °C 29.62in /  1002.9hPa SE 0.9mph /  1.4km/h 5.0mph /  8km/h 18% 0.00in /  0mm 371.0 W/m2
15:35 92.3 °F /  33.5 °C 42.6 °F /  5.9 °C 29.62in /  1002.9hPa ESE 4.0mph /  6.4km/h 8.0mph /  12.9km/h 18% 0.00in /  0mm 404.0 W/m2
15:40 92.3 °F /  33.5 °C 42.6 °F /  5.9 °C 29.62in /  1002.9hPa Calm   10.0mph /  16.1km/h 18% 0.00in /  0mm 355.0 W/m2
15:49 91.9 °F /  33.3 °C 43.7 °F /  6.5 °C 29.61in /  1002.6hPa SSW 4.0mph /  6.4km/h 5.0mph /  8km/h 19% 0.00in /  0mm 480.0 W/m2
15:54 91.8 °F /  33.2 °C 42.3 °F /  5.7 °C 29.61in /  1002.6hPa SSW 2.0mph /  3.2km/h 6.0mph /  9.7km/h 18% 0.00in /  0mm 547.0 W/m2
16:00 92.1 °F /  33.4 °C 42.4 °F /  5.8 °C 29.61in /  1002.6hPa SSW 0.9mph /  1.4km/h 3.0mph /  4.8km/h 18% 0.00in /  0mm 925.0 W/m2
16:05 92.5 °F /  33.6 °C 42.8 °F /  6 °C 29.61in /  1002.6hPa Calm   3.0mph /  4.8km/h 18% 0.00in /  0mm 617.0 W/m2
16:13 93.2 °F /  34 °C 44.8 °F /  7.1 °C 29.60in /  1002.3hPa ENE 4.9mph /  7.9km/h 9.0mph /  14.5km/h 19% 0.00in /  0mm 380.0 W/m2
16:18 93.2 °F /  34 °C 44.8 °F /  7.1 °C 29.60in /  1002.3hPa NNE 2.9mph /  4.7km/h 7.0mph /  11.3km/h 19% 0.00in /  0mm 415.0 W/m2
16:23 92.8 °F /  33.8 °C 44.6 °F /  7 °C 29.60in /  1002.3hPa Calm   5.0mph /  8km/h 19% 0.00in /  0mm 97.0 W/m2
16:30 91.9 °F /  33.3 °C 43.7 °F /  6.5 °C 29.60in /  1002.3hPa SE 0.9mph /  1.4km/h 7.0mph /  11.3km/h 19% 0.00in /  0mm 70.0 W/m2
16:35 91.6 °F /  33.1 °C 43.5 °F /  6.4 °C 29.60in /  1002.3hPa SW 2.0mph /  3.2km/h 2.0mph /  3.2km/h 19% 0.00in /  0mm 56.0 W/m2
16:44 88.3 °F /  31.3 °C 45.9 °F /  7.7 °C 29.62in /  1002.9hPa West 8.9mph /  14.3km/h 11.0mph /  17.7km/h 23% 0.00in /  0mm 47.0 W/m2
16:50 86.7 °F /  30.4 °C 46.8 °F /  8.2 °C 29.62in /  1002.9hPa West 6.9mph /  11.1km/h 9.0mph /  14.5km/h 25% 0.00in /  0mm 58.0 W/m2
16:55 84.9 °F /  29.4 °C 50.0 °F /  10 °C 29.62in /  1002.9hPa West 8.9mph /  14.3km/h 12.0mph /  19.3km/h 30% 0.00in /  0mm 76.0 W/m2
17:00 83.7 °F /  28.7 °C 51.4 °F /  10.8 °C 29.62in /  1002.9hPa WNW 2.0mph /  3.2km/h 9.0mph /  14.5km/h 33% 0.00in /  0mm 102.0 W/m2
17:07 82.0 °F /  27.8 °C 50.2 °F /  10.1 °C 29.61in /  1002.6hPa WNW 0.9mph /  1.4km/h 10.0mph /  16.1km/h 33% 0.00in /  0mm 128.0 W/m2
17:12 81.7 °F /  27.6 °C 48.9 °F /  9.4 °C 29.61in /  1002.6hPa West 2.9mph /  4.7km/h 5.0mph /  8km/h 32% 0.00in /  0mm 134.0 W/m2
17:17 81.5 °F /  27.5 °C 50.4 °F /  10.2 °C 29.61in /  1002.6hPa West 4.9mph /  7.9km/h 6.0mph /  9.7km/h 34% 0.00in /  0mm 130.0 W/m2
17:22 81.0 °F /  27.2 °C 52.2 °F /  11.2 °C 29.61in /  1002.6hPa WSW 0.9mph /  1.4km/h 5.0mph /  8km/h 37% 0.00in /  0mm 120.0 W/m2
17:32 80.4 °F /  26.9 °C 51.1 °F /  10.6 °C 29.61in /  1002.6hPa West 2.0mph /  3.2km/h 4.0mph /  6.4km/h 36% 0.00in /  0mm 109.0 W/m2
17:37 80.8 °F /  27.1 °C 50.5 °F /  10.3 °C 29.61in /  1002.6hPa Calm   5.0mph /  8km/h 35% 0.00in /  0mm 109.0 W/m2
17:43 81.0 °F /  27.2 °C 50.0 °F /  10 °C 29.61in /  1002.6hPa SSW 2.0mph /  3.2km/h 6.0mph /  9.7km/h 34% 0.00in /  0mm 95.0 W/m2
17:48 81.1 °F /  27.3 °C 52.3 °F /  11.3 °C 29.62in /  1002.9hPa South 2.0mph /  3.2km/h 5.0mph /  8km/h 37% 0.00in /  0mm 70.0 W/m2
17:53 81.0 °F /  27.2 °C 52.2 °F /  11.2 °C 29.62in /  1002.9hPa SSW 2.9mph /  4.7km/h 4.0mph /  6.4km/h 37% 0.00in /  0mm 47.0 W/m2
17:58 81.0 °F /  27.2 °C 51.4 °F /  10.8 °C 29.62in /  1002.9hPa Calm   2.0mph /  3.2km/h 36% 0.00in /  0mm 35.0 W/m2
18:03 80.8 °F /  27.1 °C 50.5 °F /  10.3 °C 29.62in /  1002.9hPa WSW 2.0mph /  3.2km/h 5.0mph /  8km/h 35% 0.00in /  0mm 30.0 W/m2
18:13 80.8 °F /  27.1 °C 48.9 °F /  9.4 °C 29.62in /  1002.9hPa SSE 8.9mph /  14.3km/h 13.0mph /  20.9km/h 33% 0.00in /  0mm 37.0 W/m2
18:18 80.8 °F /  27.1 °C 49.8 °F /  9.9 °C 29.62in /  1002.9hPa SSW 4.9mph /  7.9km/h 8.0mph /  12.9km/h 34% 0.00in /  0mm 47.0 W/m2
18:23 80.4 °F /  26.9 °C 50.2 °F /  10.1 °C 29.62in /  1002.9hPa WSW 4.0mph /  6.4km/h 10.0mph /  16.1km/h 35% 0.00in /  0mm 51.0 W/m2
18:31 79.9 °F /  26.6 °C 49.8 °F /  9.9 °C 29.61in /  1002.6hPa WSW 2.9mph /  4.7km/h 4.0mph /  6.4km/h 35% 0.00in /  0mm 44.0 W/m2
18:37 79.9 °F /  26.6 °C 48.9 °F /  9.4 °C 29.61in /  1002.6hPa Calm   2.0mph /  3.2km/h 34% 0.00in /  0mm 40.0 W/m2
18:42 79.9 °F /  26.6 °C 48.9 °F /  9.4 °C 29.61in /  1002.6hPa Calm   3.0mph /  4.8km/h 34% 0.00in /  0mm 37.0 W/m2
18:47 79.9 °F /  26.6 °C 49.8 °F /  9.9 °C 29.61in /  1002.6hPa North 2.0mph /  3.2km/h 4.0mph /  6.4km/h 35% 0.00in /  0mm 33.0 W/m2
18:53 80.1 °F /  26.7 °C 49.1 °F /  9.5 °C 29.62in /  1002.9hPa North 4.9mph /  7.9km/h 8.0mph /  12.9km/h 34% 0.00in /  0mm 25.0 W/m2
18:58 79.9 °F /  26.6 °C 48.9 °F /  9.4 °C 29.62in /  1002.9hPa Calm   4.0mph /  6.4km/h 34% 0.00in /  0mm 19.0 W/m2
19:05 79.9 °F /  26.6 °C 48.2 °F /  9 °C 29.63in /  1003.3hPa Calm   3.0mph /  4.8km/h 33% 0.00in /  0mm 21.0 W/m2
19:10 79.9 °F /  26.6 °C 48.9 °F /  9.4 °C 29.63in /  1003.3hPa ESE 2.9mph /  4.7km/h 3.0mph /  4.8km/h 34% 0.00in /  0mm 23.0 W/m2
19:21 79.7 °F /  26.5 °C 49.6 °F /  9.8 °C 29.63in /  1003.3hPa ESE 4.9mph /  7.9km/h 7.0mph /  11.3km/h 35% 0.00in /  0mm 18.0 W/m2
19:26 79.5 °F /  26.4 °C 49.5 °F /  9.7 °C 29.63in /  1003.3hPa Calm   5.0mph /  8km/h 35% 0.00in /  0mm 16.0 W/m2
19:32 79.5 °F /  26.4 °C 48.7 °F /  9.3 °C 29.64in /  1003.6hPa East 2.0mph /  3.2km/h 3.0mph /  4.8km/h 34% 0.00in /  0mm 12.0 W/m2
19:37 79.3 °F /  26.3 °C 48.6 °F /  9.2 °C 29.64in /  1003.6hPa SE 2.0mph /  3.2km/h 4.0mph /  6.4km/h 34% 0.00in /  0mm 9.0 W/m2
19:42 79.3 °F /  26.3 °C 48.6 °F /  9.2 °C 29.65in /  1003.9hPa SE 2.0mph /  3.2km/h 5.0mph /  8km/h 34% 0.00in /  0mm 5.0 W/m2
19:47 79.2 °F /  26.2 °C 48.4 °F /  9.1 °C 29.65in /  1003.9hPa ESE 2.0mph /  3.2km/h 5.0mph /  8km/h 34% 0.00in /  0mm 0.0 W/m2
19:52 79.0 °F /  26.1 °C 48.9 °F /  9.4 °C 29.65in /  1003.9hPa SSE 0.9mph /  1.4km/h 8.0mph /  12.9km/h 35% 0.00in /  0mm 0.0 W/m2
19:59 78.4 °F /  25.8 °C 49.3 °F /  9.6 °C 29.66in /  1004.3hPa South 0.9mph /  1.4km/h 6.0mph /  9.7km/h 36% 0.00in /  0mm 0.0 W/m2
20:06 78.3 °F /  25.7 °C 49.1 °F /  9.5 °C 29.67in /  1004.6hPa ESE 4.0mph /  6.4km/h 6.0mph /  9.7km/h 36% 0.00in /  0mm 0.0 W/m2
20:12 78.1 °F /  25.6 °C 50.4 °F /  10.2 °C 29.67in /  1004.6hPa SSE 4.0mph /  6.4km/h 14.0mph /  22.5km/h 38% 0.00in /  0mm 0.0 W/m2
20:17 77.7 °F /  25.4 °C 50.0 °F /  10 °C 29.67in /  1004.6hPa Calm   6.0mph /  9.7km/h 38% 0.00in /  0mm 0.0 W/m2
20:22 77.5 °F /  25.3 °C 50.0 °F /  10 °C 29.67in /  1004.6hPa SE 2.9mph /  4.7km/h 4.0mph /  6.4km/h 38% 0.00in /  0mm 0.0 W/m2
20:28 77.4 °F /  25.2 °C 49.1 °F /  9.5 °C 29.67in /  1004.6hPa Calm   6.0mph /  9.7km/h 37% 0.00in /  0mm 0.0 W/m2
20:33 77.4 °F /  25.2 °C 49.8 °F /  9.9 °C 29.67in /  1004.6hPa SSE 4.0mph /  6.4km/h 10.0mph /  16.1km/h 38% 0.00in /  0mm 0.0 W/m2
20:38 77.4 °F /  25.2 °C 50.5 °F /  10.3 °C 29.67in /  1004.6hPa SE 8.1mph /  13km/h 10.0mph /  16.1km/h 39% 0.00in /  0mm 0.0 W/m2
20:43 77.0 °F /  25 °C 50.9 °F /  10.5 °C 29.67in /  1004.6hPa Calm   10.0mph /  16.1km/h 40% 0.00in /  0mm 0.0 W/m2
20:48 76.6 °F /  24.8 °C 50.5 °F /  10.3 °C 29.66in /  1004.3hPa SSW 0.9mph /  1.4km/h 11.0mph /  17.7km/h 40% 0.00in /  0mm 0.0 W/m2
20:53 76.5 °F /  24.7 °C 50.4 °F /  10.2 °C 29.66in /  1004.3hPa SSE 4.0mph /  6.4km/h 7.0mph /  11.3km/h 40% 0.00in /  0mm 0.0 W/m2
20:58 76.3 °F /  24.6 °C 50.9 °F /  10.5 °C 29.66in /  1004.3hPa SE 6.9mph /  11.1km/h 8.0mph /  12.9km/h 41% 0.00in /  0mm 0.0 W/m2
21:04 76.1 °F /  24.5 °C 50.0 °F /  10 °C 29.66in /  1004.3hPa SSW 2.9mph /  4.7km/h 8.0mph /  12.9km/h 40% 0.00in /  0mm 0.0 W/m2
21:09 75.9 °F /  24.4 °C 49.8 °F /  9.9 °C 29.66in /  1004.3hPa South 4.0mph /  6.4km/h 7.0mph /  11.3km/h 40% 0.00in /  0mm 0.0 W/m2
21:14 75.7 °F /  24.3 °C 50.4 °F /  10.2 °C 29.66in /  1004.3hPa South 0.9mph /  1.4km/h 9.0mph /  14.5km/h 41% 0.00in /  0mm 0.0 W/m2
21:19 75.7 °F /  24.3 °C 50.4 °F /  10.2 °C 29.66in /  1004.3hPa SSW 2.0mph /  3.2km/h 9.0mph /  14.5km/h 41% 0.00in /  0mm 0.0 W/m2
21:24 75.6 °F /  24.2 °C 50.2 °F /  10.1 °C 29.66in /  1004.3hPa SSW 0.9mph /  1.4km/h 8.0mph /  12.9km/h 41% 0.00in /  0mm 0.0 W/m2
21:29 75.4 °F /  24.1 °C 50.7 °F /  10.4 °C 29.66in /  1004.3hPa SE 4.9mph /  7.9km/h 6.0mph /  9.7km/h 42% 0.00in /  0mm 0.0 W/m2
21:39 75.0 °F /  23.9 °C 51.1 °F /  10.6 °C 29.66in /  1004.3hPa South 2.0mph /  3.2km/h 5.0mph /  8km/h 43% 0.00in /  0mm 0.0 W/m2
21:44 74.8 °F /  23.8 °C 50.2 °F /  10.1 °C 29.67in /  1004.6hPa Calm   5.0mph /  8km/h 42% 0.00in /  0mm 0.0 W/m2
21:50 74.8 °F /  23.8 °C 49.6 °F /  9.8 °C 29.67in /  1004.6hPa SSE 4.0mph /  6.4km/h 7.0mph /  11.3km/h 41% 0.00in /  0mm 0.0 W/m2
21:55 75.0 °F /  23.9 °C 48.4 °F /  9.1 °C 29.67in /  1004.6hPa ENE 4.0mph /  6.4km/h 8.0mph /  12.9km/h 39% 0.00in /  0mm 0.0 W/m2
22:00 75.4 °F /  24.1 °C 48.0 °F /  8.9 °C 29.67in /  1004.6hPa East 6.0mph /  9.7km/h 12.0mph /  19.3km/h 38% 0.00in /  0mm 0.0 W/m2
22:06 75.9 °F /  24.4 °C 48.6 °F /  9.2 °C 29.67in /  1004.6hPa East 6.0mph /  9.7km/h 9.0mph /  14.5km/h 38% 0.00in /  0mm 0.0 W/m2
22:12 76.1 °F /  24.5 °C 48.0 °F /  8.9 °C 29.67in /  1004.6hPa Calm   11.0mph /  17.7km/h 37% 0.00in /  0mm 0.0 W/m2
22:17 76.3 °F /  24.6 °C 47.3 °F /  8.5 °C 29.67in /  1004.6hPa SE 6.9mph /  11.1km/h 15.0mph /  24.1km/h 36% 0.00in /  0mm 0.0 W/m2
22:23 76.5 °F /  24.7 °C 47.5 °F /  8.6 °C 29.67in /  1004.6hPa NE 4.9mph /  7.9km/h 14.0mph /  22.5km/h 36% 0.00in /  0mm 0.0 W/m2
22:28 76.6 °F /  24.8 °C 47.7 °F /  8.7 °C 29.68in /  1005hPa East 0.9mph /  1.4km/h 5.0mph /  8km/h 36% 0.00in /  0mm 0.0 W/m2
22:34 76.6 °F /  24.8 °C 47.7 °F /  8.7 °C 29.68in /  1005hPa East 0.9mph /  1.4km/h 5.0mph /  8km/h 36% 0.00in /  0mm 0.0 W/m2
22:41 76.8 °F /  24.9 °C 47.1 °F /  8.4 °C 29.68in /  1005hPa Calm   10.0mph /  16.1km/h 35% 0.00in /  0mm 0.0 W/m2
22:47 77.2 °F /  25.1 °C 47.5 °F /  8.6 °C 29.68in /  1005hPa ESE 0.9mph /  1.4km/h 3.0mph /  4.8km/h 35% 0.00in /  0mm 0.0 W/m2
22:52 77.2 °F /  25.1 °C 47.5 °F /  8.6 °C 29.68in /  1005hPa Calm   3.0mph /  4.8km/h 35% 0.00in /  0mm 0.0 W/m2
22:57 77.2 °F /  25.1 °C 47.5 °F /  8.6 °C 29.68in /  1005hPa NE 0.9mph /  1.4km/h 4.0mph /  6.4km/h 35% 0.00in /  0mm 0.0 W/m2
23:03 77.2 °F /  25.1 °C 47.5 °F /  8.6 °C 29.68in /  1005hPa Calm   3.0mph /  4.8km/h 35% 0.00in /  0mm 0.0 W/m2
23:09 77.2 °F /  25.1 °C 47.5 °F /  8.6 °C 29.68in /  1005hPa Calm   2.0mph /  3.2km/h 35% 0.00in /  0mm 0.0 W/m2
23:11 77.2 °F /  25.1 °C 47.5 °F /  8.6 °C 29.68in /  1005hPa Calm   3.0mph /  4.8km/h 35% 0.00in /  0mm 0.0 W/m2
23:16 77.0 °F /  25 °C 47.3 °F /  8.5 °C 29.68in /  1005hPa Calm   2.0mph /  3.2km/h 35% 0.00in /  0mm 0.0 W/m2
23:20 77.0 °F /  25 °C 47.3 °F /  8.5 °C 29.68in /  1005hPa Calm   1.0mph /  1.6km/h 35% 0.00in /  0mm 0.0 W/m2
23:26 77.0 °F /  25 °C 47.3 °F /  8.5 °C 29.68in /  1005hPa NE 0.9mph /  1.4km/h 4.0mph /  6.4km/h 35% 0.00in /  0mm 0.0 W/m2
23:27 77.0 °F /  25 °C 47.3 °F /  8.5 °C 29.68in /  1005hPa Calm   2.0mph /  3.2km/h 35% 0.00in /  0mm 0.0 W/m2
23:29 77.0 °F /  25 °C 47.3 °F /  8.5 °C 29.68in /  1005hPa ESE 0.9mph /  1.4km/h 3.0mph /  4.8km/h 35% 0.00in /  0mm 0.0 W/m2
23:32 77.2 °F /  25.1 °C 47.5 °F /  8.6 °C 29.68in /  1005hPa ENE 0.9mph /  1.4km/h 3.0mph /  4.8km/h 35% 0.00in /  0mm 0.0 W/m2
23:33 77.2 °F /  25.1 °C 47.5 °F /  8.6 °C 29.68in /  1005hPa Calm   4.0mph /  6.4km/h 35% 0.00in /  0mm 0.0 W/m2
23:39 77.4 °F /  25.2 °C 46.8 °F /  8.2 °C 29.68in /  1005hPa Calm   4.0mph /  6.4km/h 34% 0.00in /  0mm 0.0 W/m2
23:40 77.4 °F /  25.2 °C 46.8 °F /  8.2 °C 29.68in /  1005hPa ESE 2.0mph /  3.2km/h 6.0mph /  9.7km/h 34% 0.00in /  0mm 0.0 W/m2
23:45 77.5 °F /  25.3 °C 48.6 °F /  9.2 °C 29.68in /  1005hPa ENE 6.0mph /  9.7km/h 9.0mph /  14.5km/h 36% 0.00in /  0mm 0.0 W/m2
23:47 77.5 °F /  25.3 °C 48.6 °F /  9.2 °C 29.69in /  1005.3hPa East 2.9mph /  4.7km/h 6.0mph /  9.7km/h 36% 0.00in /  0mm 0.0 W/m2
23:51 77.5 °F /  25.3 °C 50.0 °F /  10 °C 29.69in /  1005.3hPa ENE 0.9mph /  1.4km/h 2.0mph /  3.2km/h 38% 0.00in /  0mm 0.0 W/m2
23:56 77.4 °F /  25.2 °C 52.5 °F /  11.4 °C 29.68in /  1005hPa East 0.9mph /  1.4km/h 3.0mph /  4.8km/h 42% 0.00in /  0mm 0.0 W/m2
Olympia, Windhoek, Namibia
Compliments of Weather Underground - 3.25 mb